Hit Tracker is now ESPN Home Run Tracker! Hit Tracker founder Greg Rybarczyk is now collaborating with the ESPN Stats & Information Group to continue tracking all MLB home runs, and helping baseball fans know "How Far It Really Went!™" Please credit any information on this site to ESPN Stats & Information Group. For more information and analysis on home runs, please contact founder Greg Rybarczyk. E-Mail ESPN Home Run Tracker
Main Page | Ballparks | Park Overlays | Glossary | Highlight Homers | Feedback | Bio | 3 Types of HR's | AAA Home Run Derby Last Updated: June 26, 2017, 8:30 am PST
If you want to know "How Far It Really Went!", then you've come to the right place! Welcome to the ESPN Home Run Tracker, where you can find accurate, transparently verifiable distances for every home run hit in MLB games. Please also check out the ESPN MLB Scoreboard throughout the 2017 season! Contact us at grybar@hittrackeronline.com.
Season:
Ballpark detail for Globe Life Park in Arlington
Ballpark # of Home Runs HR per game Avg.
True
Distance
Avg.
Speed
Off
Bat
Avg.
Std.
Dist.
Globe Life Park in Arlington 115 2.95 407.5 105.1 402.5

Scatter Plot of Home Runs Globe Life Park in Arlington
 Overlay Ballpark:
Without range rings   With range rings

2017 Season Home Runs for Globe Life Park in Arlington
Click headers to sort
Date Video Path Hitter Hitter
Team
Pitcher Pitcher
Team
INN Ballpark Type/
Luck
True
Dist.
Speed
Off
Bat
Elev.
Angle
Horiz.
Angle
Apex Impact Due To: Std.
Dist.
#
Parks
Wind Temp. ^ Alt.
05/12/17 Video View Joyce, Matt OAK Cashner, Andrew TEX 5 Globe Life P... PL 366 100.0 37.7 72.2 138 6 -5 3 363 21
04/26/17 Video View Choo, Shin-Soo TEX Tonkin, Michael MIN 8 Globe Life P... JE 373 97.8 30.4 71.5 91 0 -2 1 374 22
04/29/17 Video View Gomez, Carlos TEX Valdez, Jose LAA 7 Globe Life P... PL 431 103.5 29.7 87.2 110 8 -2 2 423 28
04/05/17 Video View Lindor, Francisco CLE Dyson, Sam TEX 9 Globe Life P... ND 401 107.6 28.0 57.0 81 1 -1 1 399 30
04/05/17 Video View Andrus, Elvis TEX Otero, Dan CLE 7 Globe Life P... PL 412 107.3 25.8 109.0 80 0 -1 1 412 30
04/05/17 Video View Lindor, Francisco CLE Hamels, Cole TEX 6 Globe Life P... ND 411 105.6 29.3 112.9 94 3 -1 1 407 30
04/22/17 Video View Napoli, Mike TEX Kennedy, Ian KC 2 Globe Life P... JE 343 93.8 32.3 58.2 82 4 -1 1 339 16
04/26/17 Video View Escobar, Eduardo MIN Hamels, Cole TEX 2 Globe Life P... ND 397 108.6 26.5 123.8 73 0 -1 1 397 30
04/26/17 Video View Rua, Ryan TEX Belisle, Matt MIN 8 Globe Life P... PL 399 104.1 25.5 74.5 77 0 -1 1 400 29
04/29/17 Video View Odor, Rougned TEX Chavez, Jesse LAA 5 Globe Life P... ND 385 105.6 27.6 55.0 75 0 -1 1 385 30
04/08/17 Video View Napoli, Mike TEX Graveman, Kendall OAK 7 Globe Life P... PL 421 104.2 25.6 98.3 84 4 0 1 416 26
04/07/17 Video View Mazara, Nomar TEX Alcantara, Raul OAK 2 Globe Life P... JE 427 110.9 19.4 93.0 61 0 0 0 427 25
04/05/17 Video View Mazara, Nomar TEX Salazar, Danny CLE 1 Globe Life P... ND 441 108.4 28.8 75.6 106 5 0 2 435 30
04/03/17 Video View Odor, Rougned TEX Kluber, Corey CLE 2 Globe Life P... JE 396 111.4 20.5 73.1 54 0 0 0 395 26
04/21/17 Video View Gallo, Joey TEX Karns, Nathan KC 2 Globe Life P... ND 462 123.6 23.9 57.5 77 0 0 1 461 30
04/23/17 Video View Moustakas, Mike KC Darvish, Yu TEX 3 Globe Life P... PL 381 106.8 24.8 58.1 63 0 0 1 381 30
04/23/17 Video View Gallo, Joey TEX Alexander, Scott KC 6 Globe Life P... PL 422 104.7 28.5 101.9 100 1 0 1 419 30
04/23/17 Video View Chirinos, Robinson TEX Young, Chris KC 8 Globe Life P... ND 407 107.4 27.3 116.6 82 0 0 1 405 30
04/28/17 Video View Trout, Mike LAA Martinez, Nick TEX 6 Globe Life P... JE 418 110.9 18.9 85.9 57 0 0 0 418 19
04/30/17 Video View Calhoun, Kole LAA Perez, Martin TEX 3 Globe Life P... PL 427 103.8 26.8 87.1 94 3 0 1 424 25
04/30/17 Video View Choo, Shin-Soo TEX Ramirez, J.C. LAA 5 Globe Life P... PL 433 108.3 22.0 88.3 74 0 0 0 433 28
04/30/17 Video View Marte, Jefry LAA Dyson, Sam TEX 9 Globe Life P... PL 404 105.1 32.4 115.4 112 3 0 2 400 30
05/13/17 Video View Alonso, Yonder OAK Kela, Keone TEX 8 Globe Life P... PL 383 99.4 30.1 72.1 93 -1 0 1 382 29
05/16/17 Video View Napoli, Mike TEX Leiter Jr., Mark PHI 8 Globe Life P... JE 410 103.2 23.5 88.0 74 0 0 0 409 8
05/18/17 Video View Joseph, Tommy PHI Jeffress, Jeremy TEX 9 Globe Life P... PL 408 107.6 21.8 79.8 63 0 0 0 408 27
05/29/17 Video View Longoria, Evan TB Perez, Martin TEX 5 Globe Life P... JE 421 110.8 18.5 90.0 57 0 0 0 421 21
05/30/17 Video View Kiermaier, Kevin TB Martinez, Nick TEX 5 Globe Life P... JE 419 107.3 21.9 84.2 68 0 0 1 418 24
06/02/17 Video View Correa, Carlos HOU Darvish, Yu TEX 5 Globe Life P... JE 398 101.9 26.6 103.2 81 0 0 1 396 27
06/02/17 Video View Springer, George HOU Gee, Dillon TEX 8 Globe Life P... PL 445 110.8 21.2 90.0 73 0 0 0 444 30
06/03/17 Video View Altuve, Jose HOU Kela, Keone TEX 9 Globe Life P... PL 411 109.3 22.5 104.8 66 0 0 0 411 30
06/16/17 Video View Gomez, Carlos TEX Curtis, Zac SEA 6 Globe Life P... JE 413 109.1 20.1 96.1 59 0 0 0 414 19
06/22/17 Video View Napoli, Mike TEX Stroman, Marcus TOR 2 Globe Life P... JE 385 101.3 25.1 75.7 70 0 0 0 384 17
04/08/17 Video View Alonso, Yonder OAK Alvarez, Dario TEX 8 Globe Life P... JE/L 407 99.2 33.5 90.5 120 11 1 2 393 0
04/07/17 Video View Davis, Khris OAK Griffin, A.J. TEX 4 Globe Life P... PL 406 108.5 24.4 111.7 70 0 1 1 405 30
04/03/17 Video View Encarnacion, Edwin CLE Bush, Matt TEX 8 Globe Life P... PL 415 104.4 28.6 105.2 97 1 1 2 412 30
04/03/17 Video View Ramirez, Jose CLE Darvish, Yu TEX 4 Globe Life P... PL 447 109.3 24.5 83.4 88 0 1 1 444 30
04/03/17 Video View Odor, Rougned TEX Kluber, Corey CLE 3 Globe Life P... PL 428 106.6 25.4 80.1 85 0 1 1 426 29
04/21/17 Video View Chirinos, Robinson TEX Karns, Nathan KC 4 Globe Life P... PL 434 110.1 22.5 98.6 74 0 1 0 433 30
04/23/17 Video View Bonifacio, Jorge KC Darvish, Yu TEX 3 Globe Life P... ND 409 106.2 32.7 116.3 115 3 1 2 403 30
04/25/17 Video View Gallo, Joey TEX Santana, Ervin MIN 5 Globe Life P... ND 432 115.6 25.2 57.0 75 2 1 1 428 30
05/10/17 Video View Myers, Wil SD Darvish, Yu TEX 1 Globe Life P... PL 441 106.8 29.4 100.1 112 4 1 1 434 30
05/12/17 Video View Gallo, Joey TEX Casilla, Santiago OAK 9 Globe Life P... ND 416 111.8 27.2 54.3 80 0 1 1 415 30
05/14/17 Video View Plouffe, Trevor OAK Griffin, A.J. TEX 2 Globe Life P... PL 401 109.5 24.1 116.4 66 0 1 1 399 30
05/14/17 Video View Joyce, Matt OAK Griffin, A.J. TEX 5 Globe Life P... PL 425 105.3 23.8 87.6 79 0 1 1 423 27
05/17/17 Video View Hoying, Jared TEX Garcia, Luis PHI 5 Globe Life P... JE 372 99.4 27.5 67.9 74 0 1 1 370 22
05/18/17 Video View Franco, Maikel PHI Perez, Martin TEX 5 Globe Life P... JE 388 103.1 23.4 77.3 64 0 1 0 387 14
05/18/17 Video View Rua, Ryan TEX Rodriguez, Joely PHI 5 Globe Life P... JE/L 366 104.9 22.7 64.9 54 0 1 0 365 12
05/29/17 Video View Beckham, Tim TB Barnette, Tony TEX 7 Globe Life P... PL 408 102.2 30.5 102.7 106 0 1 1 405 30
05/29/17 Video View Choo, Shin-Soo TEX De Leon, Jose TB 8 Globe Life P... ND 450 108.9 28.6 81.4 114 0 1 2 447 30
05/30/17 Video View Robertson, Daniel TB Martinez, Nick TEX 3 Globe Life P... PL 373 101.2 28.5 120.8 75 0 1 1 371 30
05/30/17 Video View Andrus, Elvis TEX Farquhar, Danny TB 7 Globe Life P... PL 419 104.3 27.8 101.7 95 0 1 1 416 30
05/31/17 Video View Kiermaier, Kevin TB Bush, Matt TEX 9 Globe Life P... ND 443 112.9 22.5 78.8 75 0 1 0 442 30
05/31/17 Video View Morrison, Logan TB Dyson, Sam TEX 10 Globe Life P... JE/L 382 102.1 25.5 109.3 69 0 1 1 381 23
05/31/17 Video View Norris, Derek TB Dyson, Sam TEX 10 Globe Life P... JE 388 103.0 25.0 107.3 70 0 1 1 387 25
06/02/17 Video View Beltre, Adrian TEX Giles, Ken HOU 9 Globe Life P... PL 425 104.9 27.1 99.2 94 0 1 1 423 30
06/03/17 Video View Beltran, Carlos HOU Cashner, Andrew TEX 2 Globe Life P... ND 423 112.8 24.9 63.0 74 0 1 1 421 30
06/04/17 Video View Springer, George HOU Perez, Martin TEX 1 Globe Life P... JE 379 106.0 23.4 114.5 59 0 1 1 378 26
06/04/17 Video View Springer, George HOU Perez, Martin TEX 4 Globe Life P... PL 411 102.2 27.5 103.3 87 9 1 1 401 28
06/06/17 Video View Mazara, Nomar TEX deGrom, Jacob NYM 4 Globe Life P... ND 440 110.9 23.5 78.8 78 0 1 1 437 30
06/06/17 Video View Granderson, Curtis NYM Bush, Matt TEX 9 Globe Life P... PL 398 104.6 23.4 78.0 67 0 1 0 397 23
06/07/17 Video View Bruce, Jay NYM Darvish, Yu TEX 4 Globe Life P... JE/L 387 101.6 24.5 77.2 69 0 1 1 385 12
06/07/17 Video View Bruce, Jay NYM Darvish, Yu TEX 6 Globe Life P... JE 385 99.2 29.1 106.7 87 0 1 1 382 25
06/07/17 Video View Chirinos, Robinson TEX Blevins, Jerry NYM 8 Globe Life P... JE 365 100.8 27.4 121.2 69 0 1 1 364 29
06/18/17 Video View Valencia, Danny SEA Darvish, Yu TEX 1 Globe Life P... PL 435 110.5 22.4 99.1 72 0 1 0 433 30
06/20/17 Video View Mazara, Nomar TEX Liriano, Francisco TOR 5 Globe Life P... PL 408 104.4 24.3 79.8 74 0 1 0 407 28
06/21/17 Video View Choo, Shin-Soo TEX Biagini, Joe TOR 3 Globe Life P... PL 421 107.0 25.1 76.2 79 2 1 0 418 29
04/09/17 Video View Chirinos, Robinson TEX Coulombe, Daniel OAK 8 Globe Life P... PL 408 102.0 30.4 102.0 106 0 2 1 405 30
04/09/17 Video View Gallo, Joey TEX Manaea, Sean OAK 2 Globe Life P... PL 387 99.8 29.3 69.8 86 5 2 1 380 27
04/21/17 Video View Chirinos, Robinson TEX Karns, Nathan KC 2 Globe Life P... PL 396 103.1 32.2 110.5 110 -4 2 2 396 30
04/25/17 Video View Vargas, Kennys MIN Cashner, Andrew TEX 4 Globe Life P... JE/L 357 93.5 34.8 65.9 98 11 2 2 343 5
04/28/17 Video View Escobar, Yunel LAA Martinez, Nick TEX 1 Globe Life P... ND 451 109.7 25.4 98.0 93 0 2 1 448 30
04/28/17 Video View Pujols, Albert LAA Jeffress, Jeremy TEX 8 Globe Life P... ND 418 108.4 29.2 113.6 99 -5 2 1 420 30
05/10/17 Video View Aybar, Erick SD Darvish, Yu TEX 2 Globe Life P... ND 415 104.5 29.5 69.4 95 7 2 2 405 30
05/11/17 Video View Napoli, Mike TEX Richard, Clayton SD 8 Globe Life P... ND 436 107.3 28.8 105.1 103 5 2 1 428 30
05/11/17 Video View Napoli, Mike TEX Maurer, Brandon SD 9 Globe Life P... ND 437 111.5 29.3 115.8 102 1 2 2 432 30
05/17/17 Video View Saunders, Michael PHI Cashner, Andrew TEX 7 Globe Life P... PL 378 97.5 32.7 67.3 97 8 2 2 367 26
05/29/17 Video View Gallo, Joey TEX Ramirez, Erasmo TB 2 Globe Life P... ND 432 119.0 23.1 56.1 66 0 2 1 429 30
06/04/17 Video View Correa, Carlos HOU Perez, Martin TEX 3 Globe Life P... PL 444 103.9 28.8 98.6 100 21 2 1 420 29
06/06/17 Video View Lagares, Juan NYM Gee, Dillon TEX 2 Globe Life P... JE 390 99.4 27.3 77.6 80 2 2 1 386 17
06/06/17 Video View d'Arnaud, Travis NYM Bush, Matt TEX 9 Globe Life P... PL 423 102.9 29.4 85.4 108 0 2 1 419 25
06/16/17 Video View Chirinos, Robinson TEX Paxton, James SEA 4 Globe Life P... JE 403 101.7 26.5 103.1 80 6 2 1 395 23
06/17/17 Video View Napoli, Mike TEX Gallardo, Yovani SEA 1 Globe Life P... PL 379 99.5 30.1 114.3 86 2 2 1 374 28
06/20/17 Video View Gomez, Carlos TEX Liriano, Francisco TOR 1 Globe Life P... PL 398 101.6 27.9 105.9 85 0 2 1 394 30
06/20/17 Video View Beltre, Adrian TEX Leone, Dominic TOR 8 Globe Life P... PL 419 103.1 25.5 90.5 85 0 2 1 417 23
06/22/17 Video View Gomez, Carlos TEX Stroman, Marcus TOR 3 Globe Life P... PL 374 101.0 31.0 124.1 86 0 2 1 371 30
06/22/17 Video View Chirinos, Robinson TEX Stroman, Marcus TOR 4 Globe Life P... PL 399 101.2 28.9 105.9 91 2 2 1 394 30
06/22/17 Video View Gomez, Carlos TEX Valdez, Cesar TOR 7 Globe Life P... ND 434 109.1 26.1 105.8 87 1 2 1 430 30
04/07/17 Video View Joyce, Matt OAK Griffin, A.J. TEX 3 Globe Life P... ND 414 109.9 35.7 62.7 140 6 3 3 403 30
04/04/17 Video View Santana, Carlos CLE Perez, Martin TEX 1 Globe Life P... JE 367 98.1 36.6 71.6 126 0 3 2 361 15
04/03/17 Video View Gomez, Carlos TEX Kluber, Corey CLE 3 Globe Life P... ND 451 112.0 30.2 107.5 121 0 3 2 446 30
04/25/17 Video View Sano, Miguel MIN Cashner, Andrew TEX 5 Globe Life P... ND 424 110.1 33.4 116.5 127 0 3 3 418 30
05/16/17 Video View Mazara, Nomar TEX Eickhoff, Jerad PHI 1 Globe Life P... ND 440 108.3 29.6 73.7 109 5 3 2 431 30
05/31/17 Video View Souza Jr., Steven TB Bibens-Dirkx, Austin TEX 2 Globe Life P... ND 423 109.0 31.7 117.6 112 1 3 2 417 30
06/04/17 Video View Gurriel, Yulieski HOU Barnette, Tony TEX 5 Globe Life P... PL 393 103.5 33.9 118.8 115 3 3 2 386 30
06/17/17 Video View Zunino, Mike SEA Perez, Martin TEX 6 Globe Life P... PL 443 105.5 26.9 89.0 97 5 3 1 434 30
06/19/17 Video View Mazara, Nomar TEX Estrada, Marco TOR 1 Globe Life P... ND 448 108.9 27.3 78.7 100 2 3 1 442 29
06/21/17 Video View Barney, Darwin TOR Ross, Tyson TEX 1 Globe Life P... JE 348 95.3 33.6 120.5 92 -4 3 1 348 24
06/21/17 Video View Gallo, Joey TEX Biagini, Joe TOR 5 Globe Life P... ITP 344 94.4 36.5 118.6 106 0 3 2 339 4
04/04/17 Video View Gallo, Joey TEX Carrasco, Carlos CLE 2 Globe Life P... ND 442 112.5 33.6 73.5 149 0 4 3 435 30
04/21/17 Video View Gallo, Joey TEX Karns, Nathan KC 5 Globe Life P... ND 431 111.0 34.5 78.5 160 -6 4 4 430 30
05/30/17 Video View Choo, Shin-Soo TEX Andriese, Matt TB 1 Globe Life P... PL 417 103.1 33.9 90.4 135 0 4 2 410 23
05/30/17 Video View Souza Jr., Steven TB Martinez, Nick TEX 3 Globe Life P... PL 385 102.8 35.0 113.1 125 -5 4 3 383 30
06/04/17 Video View Odor, Rougned TEX Peacock, Brad HOU 5 Globe Life P... PL/L 368 97.7 43.5 65.3 147 59 4 4 303 0
06/06/17 Video View Cabrera, Asdrubal NYM Gee, Dillon TEX 3 Globe Life P... PL 409 101.3 32.4 76.8 113 6 4 2 397 29
06/06/17 Video View Walker, Neil NYM Gee, Dillon TEX 3 Globe Life P... PL 424 102.6 31.9 88.1 121 4 4 2 415 26
06/16/17 Video View Dyson, Jarrod SEA Leclerc, Jose TEX 7 Globe Life P... PL 401 98.8 30.5 74.6 93 14 4 1 384 28
06/17/17 Video View Napoli, Mike TEX Altavilla, Dan SEA 6 Globe Life P... ND 435 108.1 29.1 109.4 102 5 4 2 425 30
06/18/17 Video View Gomez, Carlos TEX Bergman, Christian SEA 2 Globe Life P... JE 375 97.1 32.4 113.6 96 7 4 1 364 16
04/07/17 Video View Odor, Rougned TEX Alcantara, Raul OAK 1 Globe Life P... PL 382 102.5 37.8 65.6 136 10 5 3 365 28
06/17/17 Video View Choo, Shin-Soo TEX Altavilla, Dan SEA 6 Globe Life P... PL 433 102.6 31.3 89.6 116 11 5 2 417 27
05/14/17 Video View Rosales, Adam OAK Griffin, A.J. TEX 5 Globe Life P... JE/L 368 100.3 38.3 110.8 139 2 6 3 357 13
06/17/17 Video View Odor, Rougned TEX Altavilla, Dan SEA 6 Globe Life P... PL 375 98.1 36.2 67.8 118 7 6 2 360 23
06/19/17 Video View Bautista, Jose TOR Bibens-Dirkx, Austin TEX 4 Globe Life P... ND 412 108.0 35.1 113.5 137 1 6 3 402 30
06/19/17 Video View Smoak, Justin TOR Bibens-Dirkx, Austin TEX 2 Globe Life P... PL 392 101.2 36.8 76.9 138 6 7 3 377 18
06/06/17 Video View Gallo, Joey TEX deGrom, Jacob NYM 3 Globe Life P... JE/L 368 103.3 40.0 73.2 161 2 8 4 355 10


About HitTracker | Contact Us
© 2006-2017 HitTrackerOnline